Stony Brook, New York
Current Conditions -  °F | °C
As of 2:56 AM on Saturday 29 Nov 2014 (Local Time) from KISP Reporting Station
Clear Clear  
Wind Chill: 16°   Ceiling: Unl
Heat Index: 23°   Visibility: 10mi
Dew Point: 14°   Wind: 6mph
Humidity: 68%   Direction: 230°SW
Pressure: 30.29"   Gusts: NA
Location:  40.92°N, 73.13°W
Report Text: KISP 290756Z AUTO 23005KT 10SM CLR M05/M10 A3029 RMK AO2 SLP256 T10501100
Loading
Personal Weather Stations






























Interactive Weather Map New forecast layout! Learn more

10-Day Weather Forecast

Advertisements
Track Severe Weather on mobile